sensor_id;sensor_type;location;lat;lon;timestamp;temperature;humidity
60353;DHT22;46196;52.970;6.954;2022-10-16T00:01:59;12.40;99.90
60353;DHT22;46196;52.970;6.954;2022-10-16T00:04:25;12.40;99.90
60353;DHT22;46196;52.970;6.954;2022-10-16T00:06:51;12.30;99.90
60353;DHT22;46196;52.970;6.954;2022-10-16T00:09:17;12.30;99.90
60353;DHT22;46196;52.970;6.954;2022-10-16T00:11:42;12.30;99.90
60353;DHT22;46196;52.970;6.954;2022-10-16T00:14:12;12.30;99.90
60353;DHT22;46196;52.970;6.954;2022-10-16T00:16:38;12.30;99.90
60353;DHT22;46196;52.970;6.954;2022-10-16T00:19:04;12.30;99.90
60353;DHT22;46196;52.970;6.954;2022-10-16T00:21:31;12.40;99.90
60353;DHT22;46196;52.970;6.954;2022-10-16T00:23:59;12.40;99.90
60353;DHT22;46196;52.970;6.954;2022-10-16T00:26:26;12.40;99.90
60353;DHT22;46196;52.970;6.954;2022-10-16T00:28:52;12.40;99.90
60353;DHT22;46196;52.970;6.954;2022-10-16T00:31:20;12.40;99.90
60353;DHT22;46196;52.970;6.954;2022-10-16T00:33:47;12.40;99.90
60353;DHT22;46196;52.970;6.954;2022-10-16T00:36:16;12.40;99.90
60353;DHT22;46196;52.970;6.954;2022-10-16T00:38:42;12.40;99.90
60353;DHT22;46196;52.970;6.954;2022-10-16T00:41:12;12.50;99.90
60353;DHT22;46196;52.970;6.954;2022-10-16T00:43:45;12.50;99.90
60353;DHT22;46196;52.970;6.954;2022-10-16T00:46:22;12.50;99.90
60353;DHT22;46196;52.970;6.954;2022-10-16T00:49:22;12.50;99.90
60353;DHT22;46196;52.970;6.954;2022-10-16T00:51:53;12.50;99.90
60353;DHT22;46196;52.970;6.954;2022-10-16T00:54:30;12.50;99.90
60353;DHT22;46196;52.970;6.954;2022-10-16T00:56:59;12.50;99.90
60353;DHT22;46196;52.970;6.954;2022-10-16T00:59:29;12.50;99.90
60353;DHT22;46196;52.970;6.954;2022-10-16T01:01:56;12.50;99.90
60353;DHT22;46196;52.970;6.954;2022-10-16T01:04:24;12.40;99.90
60353;DHT22;46196;52.970;6.954;2022-10-16T01:17:37;12.40;99.90
60353;DHT22;46196;52.970;6.954;2022-10-16T01:20:18;12.30;99.90
60353;DHT22;46196;52.970;6.954;2022-10-16T01:23:06;12.30;99.90
60353;DHT22;46196;52.970;6.954;2022-10-16T01:28:57;12.40;99.90
60353;DHT22;46196;52.970;6.954;2022-10-16T01:31:29;12.40;99.90
60353;DHT22;46196;52.970;6.954;2022-10-16T01:34:04;12.40;99.90
60353;DHT22;46196;52.970;6.954;2022-10-16T01:36:58;12.40;99.90
60353;DHT22;46196;52.970;6.954;2022-10-16T01:39:29;12.40;99.90
60353;DHT22;46196;52.970;6.954;2022-10-16T01:42:19;12.40;99.90
60353;DHT22;46196;52.970;6.954;2022-10-16T01:44:47;12.40;99.90
60353;DHT22;46196;52.970;6.954;2022-10-16T01:47:14;12.40;99.90
60353;DHT22;46196;52.970;6.954;2022-10-16T01:49:42;12.40;99.90
60353;DHT22;46196;52.970;6.954;2022-10-16T01:52:18;12.40;99.90
60353;DHT22;46196;52.970;6.954;2022-10-16T01:54:47;12.40;99.90
60353;DHT22;46196;52.970;6.954;2022-10-16T01:57:14;12.40;99.90
60353;DHT22;46196;52.970;6.954;2022-10-16T01:59:50;12.40;99.90
60353;DHT22;46196;52.970;6.954;2022-10-16T02:02:19;12.30;99.90
60353;DHT22;46196;52.970;6.954;2022-10-16T02:04:48;12.40;99.90
60353;DHT22;46196;52.970;6.954;2022-10-16T02:07:15;12.30;99.90
60353;DHT22;46196;52.970;6.954;2022-10-16T02:09:41;12.40;99.90
60353;DHT22;46196;52.970;6.954;2022-10-16T02:12:28;12.40;99.90
60353;DHT22;46196;52.970;6.954;2022-10-16T02:14:56;12.40;99.90
60353;DHT22;46196;52.970;6.954;2022-10-16T02:17:22;12.40;99.90
60353;DHT22;46196;52.970;6.954;2022-10-16T02:19:51;12.40;99.90
60353;DHT22;46196;52.970;6.954;2022-10-16T02:22:27;12.50;99.90
60353;DHT22;46196;52.970;6.954;2022-10-16T02:25:05;12.50;99.90
60353;DHT22;46196;52.970;6.954;2022-10-16T02:27:47;12.50;99.90
60353;DHT22;46196;52.970;6.954;2022-10-16T02:30:47;12.50;99.90
60353;DHT22;46196;52.970;6.954;2022-10-16T02:33:16;12.50;99.90
60353;DHT22;46196;52.970;6.954;2022-10-16T02:35:44;12.50;99.90
60353;DHT22;46196;52.970;6.954;2022-10-16T02:38:12;12.60;99.90
60353;DHT22;46196;52.970;6.954;2022-10-16T02:40:39;12.60;99.90
60353;DHT22;46196;52.970;6.954;2022-10-16T02:43:05;12.60;99.90
60353;DHT22;46196;52.970;6.954;2022-10-16T02:45:32;12.60;99.90
60353;DHT22;46196;52.970;6.954;2022-10-16T02:47:58;12.60;99.90
60353;DHT22;46196;52.970;6.954;2022-10-16T02:50:23;12.60;99.90
60353;DHT22;46196;52.970;6.954;2022-10-16T02:52:50;12.70;99.90
60353;DHT22;46196;52.970;6.954;2022-10-16T02:55:16;12.70;99.90
60353;DHT22;46196;52.970;6.954;2022-10-16T02:57:42;12.70;99.90
60353;DHT22;46196;52.970;6.954;2022-10-16T03:00:13;12.70;99.90
60353;DHT22;46196;52.970;6.954;2022-10-16T03:02:40;12.70;99.90
60353;DHT22;46196;52.970;6.954;2022-10-16T03:05:06;12.70;99.90
60353;DHT22;46196;52.970;6.954;2022-10-16T03:07:32;12.80;99.90
60353;DHT22;46196;52.970;6.954;2022-10-16T03:09:57;12.80;99.90
60353;DHT22;46196;52.970;6.954;2022-10-16T03:12:26;12.80;99.90
60353;DHT22;46196;52.970;6.954;2022-10-16T03:14:52;12.80;99.90
60353;DHT22;46196;52.970;6.954;2022-10-16T03:17:18;12.80;99.90
60353;DHT22;46196;52.970;6.954;2022-10-16T03:19:44;12.80;99.90
60353;DHT22;46196;52.970;6.954;2022-10-16T03:22:10;12.80;99.90
60353;DHT22;46196;52.970;6.954;2022-10-16T03:24:36;12.80;99.90
60353;DHT22;46196;52.970;6.954;2022-10-16T03:27:02;12.80;99.90
60353;DHT22;46196;52.970;6.954;2022-10-16T03:29:27;12.80;99.90
60353;DHT22;46196;52.970;6.954;2022-10-16T03:31:55;12.80;99.90
60353;DHT22;46196;52.970;6.954;2022-10-16T03:34:21;12.80;99.90
60353;DHT22;46196;52.970;6.954;2022-10-16T03:36:47;12.80;99.90
60353;DHT22;46196;52.970;6.954;2022-10-16T03:39:13;12.80;99.90
60353;DHT22;46196;52.970;6.954;2022-10-16T03:41:39;13.50;99.90
60353;DHT22;46196;52.970;6.954;2022-10-16T03:44:05;12.90;99.90
60353;DHT22;46196;52.970;6.954;2022-10-16T03:46:31;12.80;99.90
60353;DHT22;46196;52.970;6.954;2022-10-16T03:48:57;12.80;99.90
60353;DHT22;46196;52.970;6.954;2022-10-16T03:51:23;12.80;99.90
60353;DHT22;46196;52.970;6.954;2022-10-16T03:53:48;12.80;99.90
60353;DHT22;46196;52.970;6.954;2022-10-16T03:56:14;12.80;99.90
60353;DHT22;46196;52.970;6.954;2022-10-16T03:58:40;12.90;99.90
60353;DHT22;46196;52.970;6.954;2022-10-16T04:01:06;12.80;99.90
60353;DHT22;46196;52.970;6.954;2022-10-16T04:03:31;12.80;99.90
60353;DHT22;46196;52.970;6.954;2022-10-16T04:05:57;12.80;99.90
60353;DHT22;46196;52.970;6.954;2022-10-16T04:08:23;12.80;99.90
60353;DHT22;46196;52.970;6.954;2022-10-16T04:10:49;12.80;99.90
60353;DHT22;46196;52.970;6.954;2022-10-16T04:13:15;12.80;99.90
60353;DHT22;46196;52.970;6.954;2022-10-16T04:15:41;12.80;99.90
60353;DHT22;46196;52.970;6.954;2022-10-16T04:18:07;12.80;99.90
60353;DHT22;46196;52.970;6.954;2022-10-16T04:20:33;12.70;99.90
60353;DHT22;46196;52.970;6.954;2022-10-16T04:22:59;12.70;99.90
60353;DHT22;46196;52.970;6.954;2022-10-16T04:25:25;12.70;99.90
60353;DHT22;46196;52.970;6.954;2022-10-16T04:27:53;12.70;99.90
60353;DHT22;46196;52.970;6.954;2022-10-16T04:30:19;12.70;99.90
60353;DHT22;46196;52.970;6.954;2022-10-16T04:32:54;12.60;99.90
60353;DHT22;46196;52.970;6.954;2022-10-16T04:35:21;12.60;99.90
60353;DHT22;46196;52.970;6.954;2022-10-16T04:37:47;12.60;99.90
60353;DHT22;46196;52.970;6.954;2022-10-16T04:40:13;12.60;99.90
60353;DHT22;46196;52.970;6.954;2022-10-16T04:42:39;12.50;99.90
60353;DHT22;46196;52.970;6.954;2022-10-16T04:45:06;12.50;99.90
60353;DHT22;46196;52.970;6.954;2022-10-16T04:47:33;12.50;99.90
60353;DHT22;46196;52.970;6.954;2022-10-16T04:49:58;12.50;99.90
60353;DHT22;46196;52.970;6.954;2022-10-16T04:52:26;12.60;99.90
60353;DHT22;46196;52.970;6.954;2022-10-16T04:54:52;12.60;99.90
60353;DHT22;46196;52.970;6.954;2022-10-16T04:57:17;12.60;99.90
60353;DHT22;46196;52.970;6.954;2022-10-16T04:59:43;12.60;99.90
60353;DHT22;46196;52.970;6.954;2022-10-16T05:02:09;12.60;99.90
60353;DHT22;46196;52.970;6.954;2022-10-16T05:04:35;12.60;99.90
60353;DHT22;46196;52.970;6.954;2022-10-16T05:07:01;12.60;99.90
60353;DHT22;46196;52.970;6.954;2022-10-16T05:09:26;12.60;99.90
60353;DHT22;46196;52.970;6.954;2022-10-16T05:11:52;12.70;99.90
60353;DHT22;46196;52.970;6.954;2022-10-16T05:14:18;12.70;99.90
60353;DHT22;46196;52.970;6.954;2022-10-16T05:16:44;12.70;99.90
60353;DHT22;46196;52.970;6.954;2022-10-16T05:19:10;12.70;99.90
60353;DHT22;46196;52.970;6.954;2022-10-16T05:21:36;12.70;99.90
60353;DHT22;46196;52.970;6.954;2022-10-16T05:24:02;12.80;99.90
60353;DHT22;46196;52.970;6.954;2022-10-16T05:26:27;12.80;99.90
60353;DHT22;46196;52.970;6.954;2022-10-16T05:28:53;12.80;99.90
60353;DHT22;46196;52.970;6.954;2022-10-16T05:31:19;12.80;99.90
60353;DHT22;46196;52.970;6.954;2022-10-16T05:33:45;12.80;99.90
60353;DHT22;46196;52.970;6.954;2022-10-16T05:36:10;12.80;99.90
60353;DHT22;46196;52.970;6.954;2022-10-16T05:38:37;12.80;99.90
60353;DHT22;46196;52.970;6.954;2022-10-16T05:41:03;12.80;99.90
60353;DHT22;46196;52.970;6.954;2022-10-16T05:43:30;12.80;99.90
60353;DHT22;46196;52.970;6.954;2022-10-16T05:45:58;12.80;99.90
60353;DHT22;46196;52.970;6.954;2022-10-16T05:48:24;12.80;99.90
60353;DHT22;46196;52.970;6.954;2022-10-16T05:51:00;12.80;99.90
60353;DHT22;46196;52.970;6.954;2022-10-16T05:53:31;12.90;99.90
60353;DHT22;46196;52.970;6.954;2022-10-16T05:55:57;12.90;99.90
60353;DHT22;46196;52.970;6.954;2022-10-16T05:58:23;12.90;99.90
60353;DHT22;46196;52.970;6.954;2022-10-16T06:00:57;12.90;99.90
60353;DHT22;46196;52.970;6.954;2022-10-16T06:03:23;12.90;99.90
60353;DHT22;46196;52.970;6.954;2022-10-16T06:05:49;12.90;99.90
60353;DHT22;46196;52.970;6.954;2022-10-16T06:08:15;12.90;99.90
60353;DHT22;46196;52.970;6.954;2022-10-16T06:10:40;12.90;99.90
60353;DHT22;46196;52.970;6.954;2022-10-16T06:13:06;12.90;99.90
60353;DHT22;46196;52.970;6.954;2022-10-16T06:15:32;12.90;99.90
60353;DHT22;46196;52.970;6.954;2022-10-16T06:17:58;12.90;99.90
60353;DHT22;46196;52.970;6.954;2022-10-16T06:20:24;12.90;99.90
60353;DHT22;46196;52.970;6.954;2022-10-16T06:22:49;12.80;99.90
60353;DHT22;46196;52.970;6.954;2022-10-16T06:25:15;12.80;99.90
60353;DHT22;46196;52.970;6.954;2022-10-16T06:27:41;12.90;99.90
60353;DHT22;46196;52.970;6.954;2022-10-16T06:30:07;12.80;99.90
60353;DHT22;46196;52.970;6.954;2022-10-16T06:32:34;12.80;99.90
60353;DHT22;46196;52.970;6.954;2022-10-16T06:35:00;12.80;99.90
60353;DHT22;46196;52.970;6.954;2022-10-16T06:37:27;12.80;99.90
60353;DHT22;46196;52.970;6.954;2022-10-16T06:39:53;12.90;99.90
60353;DHT22;46196;52.970;6.954;2022-10-16T06:42:19;12.90;99.90
60353;DHT22;46196;52.970;6.954;2022-10-16T06:44:44;12.90;99.90
60353;DHT22;46196;52.970;6.954;2022-10-16T06:47:11;12.90;99.90
60353;DHT22;46196;52.970;6.954;2022-10-16T06:49:37;13.00;99.90
60353;DHT22;46196;52.970;6.954;2022-10-16T06:52:03;13.00;99.90
60353;DHT22;46196;52.970;6.954;2022-10-16T06:54:29;13.00;99.90
60353;DHT22;46196;52.970;6.954;2022-10-16T06:56:55;13.00;99.90
60353;DHT22;46196;52.970;6.954;2022-10-16T06:59:21;13.00;99.90
60353;DHT22;46196;52.970;6.954;2022-10-16T07:01:47;13.00;99.90
60353;DHT22;46196;52.970;6.954;2022-10-16T07:04:14;13.10;99.90
60353;DHT22;46196;52.970;6.954;2022-10-16T07:06:40;13.10;99.90
60353;DHT22;46196;52.970;6.954;2022-10-16T07:09:08;13.10;99.90
60353;DHT22;46196;52.970;6.954;2022-10-16T07:11:37;13.20;99.90
60353;DHT22;46196;52.970;6.954;2022-10-16T07:14:03;13.20;99.90
60353;DHT22;46196;52.970;6.954;2022-10-16T07:16:31;13.20;99.90
60353;DHT22;46196;52.970;6.954;2022-10-16T07:18:59;13.20;99.90
60353;DHT22;46196;52.970;6.954;2022-10-16T07:21:31;13.20;99.90
60353;DHT22;46196;52.970;6.954;2022-10-16T07:24:01;13.20;99.90
60353;DHT22;46196;52.970;6.954;2022-10-16T07:26:28;13.30;99.90
60353;DHT22;46196;52.970;6.954;2022-10-16T07:28:56;13.30;99.90
60353;DHT22;46196;52.970;6.954;2022-10-16T07:31:24;13.30;99.90
60353;DHT22;46196;52.970;6.954;2022-10-16T07:33:50;13.30;99.90
60353;DHT22;46196;52.970;6.954;2022-10-16T07:36:18;13.30;99.90
60353;DHT22;46196;52.970;6.954;2022-10-16T07:38:44;13.30;99.90
60353;DHT22;46196;52.970;6.954;2022-10-16T07:41:15;13.30;99.90
60353;DHT22;46196;52.970;6.954;2022-10-16T07:43:46;13.40;99.90
60353;DHT22;46196;52.970;6.954;2022-10-16T07:46:13;13.40;99.90
60353;DHT22;46196;52.970;6.954;2022-10-16T07:48:38;13.50;99.90
60353;DHT22;46196;52.970;6.954;2022-10-16T07:51:06;13.50;99.90
60353;DHT22;46196;52.970;6.954;2022-10-16T07:53:32;13.50;99.90
60353;DHT22;46196;52.970;6.954;2022-10-16T07:56:04;13.60;99.90
60353;DHT22;46196;52.970;6.954;2022-10-16T07:58:30;13.60;99.90
60353;DHT22;46196;52.970;6.954;2022-10-16T08:00:57;13.70;99.90
60353;DHT22;46196;52.970;6.954;2022-10-16T08:03:24;13.80;99.90
60353;DHT22;46196;52.970;6.954;2022-10-16T08:05:50;13.80;99.90
60353;DHT22;46196;52.970;6.954;2022-10-16T08:08:17;13.80;99.90
60353;DHT22;46196;52.970;6.954;2022-10-16T08:10:43;13.80;99.90
60353;DHT22;46196;52.970;6.954;2022-10-16T08:13:09;13.90;99.90
60353;DHT22;46196;52.970;6.954;2022-10-16T08:15:34;13.90;99.90
60353;DHT22;46196;52.970;6.954;2022-10-16T08:18:03;14.10;99.90
60353;DHT22;46196;52.970;6.954;2022-10-16T08:20:30;14.20;99.90
60353;DHT22;46196;52.970;6.954;2022-10-16T08:22:56;14.20;99.90
60353;DHT22;46196;52.970;6.954;2022-10-16T08:25:23;14.20;99.90
60353;DHT22;46196;52.970;6.954;2022-10-16T08:27:50;14.20;99.90
60353;DHT22;46196;52.970;6.954;2022-10-16T08:30:17;14.20;99.90
60353;DHT22;46196;52.970;6.954;2022-10-16T08:32:44;14.20;99.90
60353;DHT22;46196;52.970;6.954;2022-10-16T08:35:10;14.50;99.90
60353;DHT22;46196;52.970;6.954;2022-10-16T08:37:37;15.20;99.90
60353;DHT22;46196;52.970;6.954;2022-10-16T09:15:55;16.10;99.90
60353;DHT22;46196;52.970;6.954;2022-10-16T16:02:37;15.50;99.90
60353;DHT22;46196;52.970;6.954;2022-10-16T16:05:03;16.30;99.90
60353;DHT22;46196;52.970;6.954;2022-10-16T16:07:32;16.20;99.90
60353;DHT22;46196;52.970;6.954;2022-10-16T16:09:59;16.10;99.90
60353;DHT22;46196;52.970;6.954;2022-10-16T16:12:24;16.00;99.90
60353;DHT22;46196;52.970;6.954;2022-10-16T16:14:50;16.00;99.90
60353;DHT22;46196;52.970;6.954;2022-10-16T16:17:17;15.90;99.90
60353;DHT22;46196;52.970;6.954;2022-10-16T16:19:42;15.90;99.90
60353;DHT22;46196;52.970;6.954;2022-10-16T16:22:08;15.80;99.90
60353;DHT22;46196;52.970;6.954;2022-10-16T16:24:34;15.80;99.90
60353;DHT22;46196;52.970;6.954;2022-10-16T16:27:00;15.70;99.90
60353;DHT22;46196;52.970;6.954;2022-10-16T16:29:26;15.70;99.90
60353;DHT22;46196;52.970;6.954;2022-10-16T16:31:51;15.60;99.90
60353;DHT22;46196;52.970;6.954;2022-10-16T16:34:24;15.60;99.90
60353;DHT22;46196;52.970;6.954;2022-10-16T16:36:51;15.50;99.90
60353;DHT22;46196;52.970;6.954;2022-10-16T16:39:17;15.40;99.90
60353;DHT22;46196;52.970;6.954;2022-10-16T16:41:43;15.30;99.90
60353;DHT22;46196;52.970;6.954;2022-10-16T16:44:11;15.30;99.90
60353;DHT22;46196;52.970;6.954;2022-10-16T16:46:38;15.20;99.90
60353;DHT22;46196;52.970;6.954;2022-10-16T16:49:06;15.10;99.90
60353;DHT22;46196;52.970;6.954;2022-10-16T16:51:32;15.00;99.90
60353;DHT22;46196;52.970;6.954;2022-10-16T16:53:59;15.00;99.90
60353;DHT22;46196;52.970;6.954;2022-10-16T16:56:26;14.90;99.90
60353;DHT22;46196;52.970;6.954;2022-10-16T16:58:54;14.80;99.90
60353;DHT22;46196;52.970;6.954;2022-10-16T17:01:21;14.80;99.90
60353;DHT22;46196;52.970;6.954;2022-10-16T17:03:50;14.70;99.90
60353;DHT22;46196;52.970;6.954;2022-10-16T17:06:19;14.60;99.90
60353;DHT22;46196;52.970;6.954;2022-10-16T17:08:45;14.50;99.90
60353;DHT22;46196;52.970;6.954;2022-10-16T17:11:22;14.40;99.90
60353;DHT22;46196;52.970;6.954;2022-10-16T17:13:49;14.40;99.90
60353;DHT22;46196;52.970;6.954;2022-10-16T17:16:16;14.40;99.90
60353;DHT22;46196;52.970;6.954;2022-10-16T17:18:42;14.30;99.90
60353;DHT22;46196;52.970;6.954;2022-10-16T17:21:09;14.30;99.90
60353;DHT22;46196;52.970;6.954;2022-10-16T17:23:36;14.20;99.90
60353;DHT22;46196;52.970;6.954;2022-10-16T17:28:30;14.10;99.90
60353;DHT22;46196;52.970;6.954;2022-10-16T17:30:55;14.00;99.90
60353;DHT22;46196;52.970;6.954;2022-10-16T17:33:21;13.90;99.90
60353;DHT22;46196;52.970;6.954;2022-10-16T17:35:47;13.90;99.90
60353;DHT22;46196;52.970;6.954;2022-10-16T17:38:14;13.80;99.90
60353;DHT22;46196;52.970;6.954;2022-10-16T17:40:41;13.80;99.90
60353;DHT22;46196;52.970;6.954;2022-10-16T17:43:08;13.70;99.90
60353;DHT22;46196;52.970;6.954;2022-10-16T17:45:37;13.30;99.90
60353;DHT22;46196;52.970;6.954;2022-10-16T17:48:04;13.60;99.90
60353;DHT22;46196;52.970;6.954;2022-10-16T17:50:30;13.50;99.90
60353;DHT22;46196;52.970;6.954;2022-10-16T17:52:55;13.40;99.90
60353;DHT22;46196;52.970;6.954;2022-10-16T17:55:21;13.40;99.90
60353;DHT22;46196;52.970;6.954;2022-10-16T17:57:47;13.30;99.90
60353;DHT22;46196;52.970;6.954;2022-10-16T18:00:13;13.30;99.90
60353;DHT22;46196;52.970;6.954;2022-10-16T18:02:38;13.20;99.90
60353;DHT22;46196;52.970;6.954;2022-10-16T18:05:08;13.20;99.90
60353;DHT22;46196;52.970;6.954;2022-10-16T18:07:34;13.20;99.90
60353;DHT22;46196;52.970;6.954;2022-10-16T18:09:59;13.10;99.90
60353;DHT22;46196;52.970;6.954;2022-10-16T18:12:28;13.10;99.90
60353;DHT22;46196;52.970;6.954;2022-10-16T18:14:54;13.00;99.90
60353;DHT22;46196;52.970;6.954;2022-10-16T18:17:23;13.00;99.90
60353;DHT22;46196;52.970;6.954;2022-10-16T18:19:49;13.00;99.90
60353;DHT22;46196;52.970;6.954;2022-10-16T18:22:15;12.90;99.90
60353;DHT22;46196;52.970;6.954;2022-10-16T18:24:41;12.90;99.90
60353;DHT22;46196;52.970;6.954;2022-10-16T18:27:07;12.90;99.90
60353;DHT22;46196;52.970;6.954;2022-10-16T18:29:33;12.90;99.90
60353;DHT22;46196;52.970;6.954;2022-10-16T18:31:59;12.90;99.90
60353;DHT22;46196;52.970;6.954;2022-10-16T18:34:25;12.80;99.90
60353;DHT22;46196;52.970;6.954;2022-10-16T18:36:52;12.80;99.90
60353;DHT22;46196;52.970;6.954;2022-10-16T18:39:20;12.80;99.90
60353;DHT22;46196;52.970;6.954;2022-10-16T18:41:48;12.80;99.90
60353;DHT22;46196;52.970;6.954;2022-10-16T18:44:16;12.80;99.90
60353;DHT22;46196;52.970;6.954;2022-10-16T18:46:42;12.70;99.90
60353;DHT22;46196;52.970;6.954;2022-10-16T18:49:08;12.70;99.90
60353;DHT22;46196;52.970;6.954;2022-10-16T18:51:39;12.70;99.90
60353;DHT22;46196;52.970;6.954;2022-10-16T18:54:10;12.70;99.90
60353;DHT22;46196;52.970;6.954;2022-10-16T18:56:36;13.40;99.90
60353;DHT22;46196;52.970;6.954;2022-10-16T18:59:04;12.60;99.90
60353;DHT22;46196;52.970;6.954;2022-10-16T19:01:32;12.60;99.90
60353;DHT22;46196;52.970;6.954;2022-10-16T19:04:04;12.60;99.90
60353;DHT22;46196;52.970;6.954;2022-10-16T19:06:34;12.60;99.90
60353;DHT22;46196;52.970;6.954;2022-10-16T19:09:00;12.60;99.90
60353;DHT22;46196;52.970;6.954;2022-10-16T19:11:27;12.60;99.90
60353;DHT22;46196;52.970;6.954;2022-10-16T19:13:53;12.60;99.90
60353;DHT22;46196;52.970;6.954;2022-10-16T19:16:23;12.60;99.90
60353;DHT22;46196;52.970;6.954;2022-10-16T19:18:51;12.50;99.90
60353;DHT22;46196;52.970;6.954;2022-10-16T19:21:18;12.50;99.90
60353;DHT22;46196;52.970;6.954;2022-10-16T19:23:44;12.50;99.90
60353;DHT22;46196;52.970;6.954;2022-10-16T19:26:12;12.50;99.90
60353;DHT22;46196;52.970;6.954;2022-10-16T19:28:38;12.50;99.90
60353;DHT22;46196;52.970;6.954;2022-10-16T19:31:06;12.50;99.90
60353;DHT22;46196;52.970;6.954;2022-10-16T19:33:32;12.50;99.90
60353;DHT22;46196;52.970;6.954;2022-10-16T19:36:10;12.40;99.90
60353;DHT22;46196;52.970;6.954;2022-10-16T19:38:37;12.40;99.90
60353;DHT22;46196;52.970;6.954;2022-10-16T19:41:12;12.50;99.90
60353;DHT22;46196;52.970;6.954;2022-10-16T19:43:39;12.40;99.90
60353;DHT22;46196;52.970;6.954;2022-10-16T19:46:13;12.50;99.90
60353;DHT22;46196;52.970;6.954;2022-10-16T19:48:40;12.40;99.90
60353;DHT22;46196;52.970;6.954;2022-10-16T19:51:09;12.50;99.90
60353;DHT22;46196;52.970;6.954;2022-10-16T19:53:35;12.50;99.90
60353;DHT22;46196;52.970;6.954;2022-10-16T19:56:01;12.40;99.90
60353;DHT22;46196;52.970;6.954;2022-10-16T19:58:26;12.50;99.90
60353;DHT22;46196;52.970;6.954;2022-10-16T20:00:52;12.50;99.90
60353;DHT22;46196;52.970;6.954;2022-10-16T20:03:19;12.50;99.90
60353;DHT22;46196;52.970;6.954;2022-10-16T20:05:55;12.50;99.90
60353;DHT22;46196;52.970;6.954;2022-10-16T20:08:22;12.50;99.90
60353;DHT22;46196;52.970;6.954;2022-10-16T20:10:53;12.50;99.90
60353;DHT22;46196;52.970;6.954;2022-10-16T20:13:20;12.50;99.90
60353;DHT22;46196;52.970;6.954;2022-10-16T20:15:46;12.50;99.90
60353;DHT22;46196;52.970;6.954;2022-10-16T20:18:13;12.50;99.90
60353;DHT22;46196;52.970;6.954;2022-10-16T20:20:41;12.60;99.90
60353;DHT22;46196;52.970;6.954;2022-10-16T20:23:07;12.60;99.90
60353;DHT22;46196;52.970;6.954;2022-10-16T20:25:37;12.60;99.90
60353;DHT22;46196;52.970;6.954;2022-10-16T20:28:04;12.60;99.90
60353;DHT22;46196;52.970;6.954;2022-10-16T20:30:35;12.60;99.90
60353;DHT22;46196;52.970;6.954;2022-10-16T20:33:01;12.60;99.90
60353;DHT22;46196;52.970;6.954;2022-10-16T20:35:27;12.60;99.90
60353;DHT22;46196;52.970;6.954;2022-10-16T20:37:53;12.60;99.90
60353;DHT22;46196;52.970;6.954;2022-10-16T20:40:19;12.70;99.90
60353;DHT22;46196;52.970;6.954;2022-10-16T20:42:45;12.70;99.90
60353;DHT22;46196;52.970;6.954;2022-10-16T20:45:11;12.60;99.90
60353;DHT22;46196;52.970;6.954;2022-10-16T20:47:37;12.70;99.90
60353;DHT22;46196;52.970;6.954;2022-10-16T20:50:03;12.70;99.90
60353;DHT22;46196;52.970;6.954;2022-10-16T20:52:33;12.60;99.90
60353;DHT22;46196;52.970;6.954;2022-10-16T20:55:00;12.60;99.90
60353;DHT22;46196;52.970;6.954;2022-10-16T20:57:26;12.60;99.90
60353;DHT22;46196;52.970;6.954;2022-10-16T20:59:52;12.70;99.90
60353;DHT22;46196;52.970;6.954;2022-10-16T21:02:23;12.70;99.90
60353;DHT22;46196;52.970;6.954;2022-10-16T21:04:49;12.70;99.90
60353;DHT22;46196;52.970;6.954;2022-10-16T21:07:16;12.70;99.90
60353;DHT22;46196;52.970;6.954;2022-10-16T21:09:42;12.70;99.90
60353;DHT22;46196;52.970;6.954;2022-10-16T21:12:08;12.70;99.90
60353;DHT22;46196;52.970;6.954;2022-10-16T21:14:36;12.80;99.90
60353;DHT22;46196;52.970;6.954;2022-10-16T21:17:02;12.80;99.90
60353;DHT22;46196;52.970;6.954;2022-10-16T21:19:28;12.80;99.90
60353;DHT22;46196;52.970;6.954;2022-10-16T21:21:54;12.80;99.90
60353;DHT22;46196;52.970;6.954;2022-10-16T21:24:20;12.80;99.90
60353;DHT22;46196;52.970;6.954;2022-10-16T21:26:46;12.80;99.90
60353;DHT22;46196;52.970;6.954;2022-10-16T21:29:12;12.80;99.90
60353;DHT22;46196;52.970;6.954;2022-10-16T21:31:39;12.80;99.90
60353;DHT22;46196;52.970;6.954;2022-10-16T21:34:05;12.80;99.90
60353;DHT22;46196;52.970;6.954;2022-10-16T21:36:36;12.90;99.90
60353;DHT22;46196;52.970;6.954;2022-10-16T21:39:17;12.80;99.90
60353;DHT22;46196;52.970;6.954;2022-10-16T21:41:44;12.80;99.90
60353;DHT22;46196;52.970;6.954;2022-10-16T21:44:11;12.80;99.90
60353;DHT22;46196;52.970;6.954;2022-10-16T21:46:39;12.80;99.90
60353;DHT22;46196;52.970;6.954;2022-10-16T21:49:08;12.80;99.90
60353;DHT22;46196;52.970;6.954;2022-10-16T21:51:37;12.80;99.90
60353;DHT22;46196;52.970;6.954;2022-10-16T21:54:06;12.80;99.90
60353;DHT22;46196;52.970;6.954;2022-10-16T21:56:32;12.70;99.90
60353;DHT22;46196;52.970;6.954;2022-10-16T21:58:58;12.80;99.90
60353;DHT22;46196;52.970;6.954;2022-10-16T22:01:25;12.70;99.90
60353;DHT22;46196;52.970;6.954;2022-10-16T22:03:51;12.70;99.90
60353;DHT22;46196;52.970;6.954;2022-10-16T22:06:20;12.70;99.90
60353;DHT22;46196;52.970;6.954;2022-10-16T22:08:47;12.70;99.90
60353;DHT22;46196;52.970;6.954;2022-10-16T22:11:23;12.70;99.90
60353;DHT22;46196;52.970;6.954;2022-10-16T22:13:50;12.70;99.90
60353;DHT22;46196;52.970;6.954;2022-10-16T22:16:23;12.70;99.90
60353;DHT22;46196;52.970;6.954;2022-10-16T22:18:51;12.70;99.90
60353;DHT22;46196;52.970;6.954;2022-10-16T22:21:17;12.70;99.90
60353;DHT22;46196;52.970;6.954;2022-10-16T22:23:43;12.70;99.90
60353;DHT22;46196;52.970;6.954;2022-10-16T22:26:11;12.70;99.90
60353;DHT22;46196;52.970;6.954;2022-10-16T22:28:38;12.70;99.90
60353;DHT22;46196;52.970;6.954;2022-10-16T22:31:07;12.70;99.90
60353;DHT22;46196;52.970;6.954;2022-10-16T22:33:33;12.70;99.90
60353;DHT22;46196;52.970;6.954;2022-10-16T22:36:01;12.80;99.90
60353;DHT22;46196;52.970;6.954;2022-10-16T22:38:28;12.80;99.90
60353;DHT22;46196;52.970;6.954;2022-10-16T22:40:54;12.80;99.90
60353;DHT22;46196;52.970;6.954;2022-10-16T22:43:20;12.90;99.90
60353;DHT22;46196;52.970;6.954;2022-10-16T22:45:46;12.90;99.90
60353;DHT22;46196;52.970;6.954;2022-10-16T22:48:12;12.90;99.90
60353;DHT22;46196;52.970;6.954;2022-10-16T22:50:37;12.90;99.90
60353;DHT22;46196;52.970;6.954;2022-10-16T22:53:03;12.90;99.90
60353;DHT22;46196;52.970;6.954;2022-10-16T22:55:29;12.90;99.90
60353;DHT22;46196;52.970;6.954;2022-10-16T22:57:55;12.90;99.90
60353;DHT22;46196;52.970;6.954;2022-10-16T23:00:22;12.90;99.90
60353;DHT22;46196;52.970;6.954;2022-10-16T23:02:47;12.90;99.90
60353;DHT22;46196;52.970;6.954;2022-10-16T23:05:13;12.90;99.90
60353;DHT22;46196;52.970;6.954;2022-10-16T23:07:39;12.80;99.90
60353;DHT22;46196;52.970;6.954;2022-10-16T23:10:05;12.80;99.90